createdAt,value
2017-08-26T00:00:07.510Z,78.90
2017-08-26T00:02:41.801Z,78.20
2017-08-26T00:05:09.420Z,78.10
2017-08-26T00:07:37.064Z,78.00
2017-08-26T00:10:04.663Z,77.20
2017-08-26T00:12:32.281Z,77.10
2017-08-26T00:14:59.895Z,76.90
2017-08-26T00:17:27.497Z,78.10
2017-08-26T00:19:55.129Z,77.70
2017-08-26T00:22:22.738Z,78.20
2017-08-26T00:24:50.355Z,78.20
2017-08-26T00:27:17.965Z,77.50
2017-08-26T00:29:45.605Z,77.90
2017-08-26T00:32:13.217Z,77.60
2017-08-26T00:34:40.846Z,77.60
2017-08-26T00:37:08.490Z,77.50
2017-08-26T00:39:36.100Z,77.20
2017-08-26T00:42:03.752Z,77.40
2017-08-26T00:44:31.369Z,77.70
2017-08-26T00:46:59.003Z,77.50
2017-08-26T00:49:26.627Z,76.90
2017-08-26T00:51:54.283Z,77.50
2017-08-26T00:54:21.905Z,78.30
2017-08-26T00:56:49.540Z,78.90
2017-08-26T00:59:17.168Z,78.80
2017-08-26T01:01:44.762Z,78.30
2017-08-26T01:04:12.387Z,78.80
2017-08-26T01:06:40.037Z,79.20
2017-08-26T01:09:07.676Z,78.50
2017-08-26T01:11:35.284Z,78.90
2017-08-26T01:14:02.909Z,79.70
2017-08-26T01:16:30.518Z,79.50
2017-08-26T01:18:58.157Z,79.40
2017-08-26T01:21:25.776Z,78.50
2017-08-26T01:23:53.389Z,78.60
2017-08-26T01:26:21.029Z,78.50
2017-08-26T01:28:48.647Z,78.70
2017-08-26T01:31:16.277Z,79.40
2017-08-26T01:33:43.867Z,78.90
2017-08-26T01:36:11.494Z,79.20
2017-08-26T01:38:39.103Z,79.20
2017-08-26T01:41:06.718Z,79.20
2017-08-26T01:43:34.375Z,79.60
2017-08-26T01:46:01.994Z,80.70
2017-08-26T01:48:29.619Z,80.90
2017-08-26T01:50:57.287Z,80.60
2017-08-26T01:53:24.901Z,80.80
2017-08-26T01:55:52.516Z,80.30
2017-08-26T01:58:20.162Z,80.70
2017-08-26T02:00:47.769Z,81.10
2017-08-26T02:03:15.369Z,81.20
2017-08-26T02:05:43.000Z,81.00
2017-08-26T02:08:10.601Z,81.10
2017-08-26T02:10:38.205Z,81.10
2017-08-26T02:13:05.847Z,81.20
2017-08-26T02:15:33.452Z,80.60
2017-08-26T02:18:01.050Z,79.70
2017-08-26T02:20:28.666Z,79.80
2017-08-26T02:22:56.258Z,79.20
2017-08-26T02:25:23.858Z,79.00
2017-08-26T02:27:51.516Z,78.30
2017-08-26T02:30:19.114Z,77.50
2017-08-26T02:32:46.749Z,77.10
2017-08-26T02:35:14.374Z,76.50
2017-08-26T02:37:41.991Z,76.00
2017-08-26T02:40:09.616Z,75.60
2017-08-26T02:42:37.253Z,75.50
2017-08-26T02:45:04.865Z,76.40
2017-08-26T02:47:32.498Z,77.40
2017-08-26T02:50:00.138Z,78.10
2017-08-26T02:52:27.755Z,79.20
2017-08-26T02:54:55.360Z,79.60
2017-08-26T02:57:23.015Z,79.80
2017-08-26T02:59:50.587Z,80.40
2017-08-26T03:02:18.139Z,80.00
2017-08-26T03:04:45.733Z,80.80
2017-08-26T03:07:13.280Z,80.50
2017-08-26T03:09:40.840Z,81.10
2017-08-26T03:12:08.445Z,81.00
2017-08-26T03:14:36.020Z,79.90
2017-08-26T03:17:03.560Z,80.60
2017-08-26T03:19:31.153Z,80.60
2017-08-26T03:21:58.714Z,80.60
2017-08-26T03:24:26.264Z,80.80
2017-08-26T03:26:53.852Z,80.90
2017-08-26T03:29:21.399Z,80.90
2017-08-26T03:31:48.941Z,81.00
2017-08-26T03:34:16.512Z,81.10
2017-08-26T03:36:44.064Z,81.20
2017-08-26T03:39:11.608Z,81.10
2017-08-26T03:41:39.217Z,81.60
2017-08-26T03:44:06.771Z,81.50
2017-08-26T03:46:34.336Z,81.50
2017-08-26T03:49:01.937Z,81.50
2017-08-26T03:51:29.490Z,81.60
2017-08-26T03:53:57.065Z,81.40
2017-08-26T03:56:24.671Z,81.70
2017-08-26T03:58:52.230Z,81.90
2017-08-26T04:01:19.782Z,81.20
2017-08-26T04:03:47.379Z,81.20
2017-08-26T04:06:14.929Z,81.30
2017-08-26T04:08:42.483Z,81.20
2017-08-26T04:11:10.070Z,81.10
2017-08-26T04:13:37.637Z,81.00
2017-08-26T04:16:05.187Z,81.20
2017-08-26T04:18:33.161Z,81.10
2017-08-26T04:21:00.727Z,80.80
2017-08-26T04:23:28.268Z,81.30
2017-08-26T04:25:55.858Z,81.40
2017-08-26T04:28:23.406Z,81.00
2017-08-26T04:30:50.974Z,80.60
2017-08-26T04:33:18.567Z,80.70
2017-08-26T04:35:46.126Z,80.80
2017-08-26T04:38:13.692Z,81.40
2017-08-26T04:40:41.295Z,80.90
2017-08-26T04:43:08.863Z,81.40
2017-08-26T04:45:36.432Z,81.20
2017-08-26T04:48:04.011Z,80.70
2017-08-26T04:50:31.562Z,81.90
2017-08-26T04:52:59.108Z,81.50
2017-08-26T04:55:26.689Z,81.10
2017-08-26T04:57:54.243Z,82.80
2017-08-26T05:00:21.780Z,81.60
2017-08-26T05:02:49.365Z,82.00
2017-08-26T05:05:16.923Z,82.70
2017-08-26T05:07:44.481Z,82.10
2017-08-26T05:10:12.072Z,82.80
2017-08-26T05:12:39.625Z,81.50
2017-08-26T05:15:07.182Z,82.50
2017-08-26T05:17:34.767Z,81.60
2017-08-26T05:20:02.334Z,81.70
2017-08-26T05:22:29.908Z,81.50
2017-08-26T05:24:57.495Z,81.90
2017-08-26T05:27:25.040Z,82.10
2017-08-26T05:29:52.598Z,82.20
2017-08-26T05:32:20.187Z,83.10
2017-08-26T05:34:47.738Z,82.70
2017-08-26T05:37:15.318Z,81.80
2017-08-26T05:39:42.891Z,82.60
2017-08-26T05:42:10.460Z,82.70
2017-08-26T05:44:38.014Z,82.20
2017-08-26T05:47:05.602Z,82.90
2017-08-26T05:49:33.164Z,83.30
2017-08-26T05:52:00.724Z,83.70
2017-08-26T05:54:28.309Z,83.40
2017-08-26T05:56:55.863Z,83.00
2017-08-26T05:59:23.422Z,83.90
2017-08-26T06:01:51.021Z,84.00
2017-08-26T06:04:18.571Z,83.90
2017-08-26T06:06:46.121Z,84.60
2017-08-26T06:09:13.731Z,83.70
2017-08-26T06:11:41.357Z,84.20
2017-08-26T06:14:08.908Z,84.10
2017-08-26T06:16:36.484Z,84.10
2017-08-26T06:19:04.051Z,82.90
2017-08-26T06:21:31.615Z,82.60
2017-08-26T06:23:59.206Z,82.40
2017-08-26T06:26:26.770Z,82.40
2017-08-26T06:28:54.735Z,80.60
2017-08-26T06:31:24.062Z,79.10
2017-08-26T06:33:51.634Z,78.30
2017-08-26T06:36:19.198Z,77.90
2017-08-26T06:38:46.796Z,77.90
2017-08-26T06:41:14.345Z,78.10
2017-08-26T06:43:41.906Z,75.20
2017-08-26T06:46:09.477Z,77.00
2017-08-26T06:48:37.027Z,76.10
2017-08-26T06:51:05.786Z,76.40
2017-08-26T06:53:33.364Z,70.10
2017-08-26T06:56:00.907Z,71.50
2017-08-26T06:58:28.462Z,69.90
2017-08-26T07:00:56.068Z,69.20
2017-08-26T07:03:23.629Z,69.00
2017-08-26T07:05:51.185Z,70.00
2017-08-26T07:08:18.788Z,68.80
2017-08-26T07:10:46.350Z,69.90
2017-08-26T07:13:13.915Z,68.40
2017-08-26T07:15:41.495Z,68.60
2017-08-26T07:18:09.065Z,68.60
2017-08-26T07:20:36.632Z,67.50
2017-08-26T07:23:06.121Z,68.30
2017-08-26T07:25:33.669Z,65.60
2017-08-26T07:28:01.279Z,63.20
2017-08-26T07:30:28.888Z,65.00
2017-08-26T07:32:56.454Z,63.50
2017-08-26T07:35:24.015Z,62.80
2017-08-26T07:37:51.609Z,61.70
2017-08-26T07:40:19.157Z,62.80
2017-08-26T07:42:46.717Z,61.30
2017-08-26T07:45:14.307Z,61.40
2017-08-26T07:47:41.870Z,59.30
2017-08-26T07:50:09.415Z,58.80
2017-08-26T07:52:37.030Z,56.30
2017-08-26T07:55:04.599Z,55.60
2017-08-26T07:57:32.149Z,54.50
2017-08-26T07:59:59.745Z,54.10
2017-08-26T08:02:27.306Z,53.10
2017-08-26T08:04:54.867Z,57.10
2017-08-26T08:07:22.463Z,56.80
2017-08-26T08:09:50.022Z,54.00
2017-08-26T08:12:17.577Z,54.70
2017-08-26T08:14:45.176Z,51.90
2017-08-26T08:17:12.721Z,54.80
2017-08-26T08:19:40.283Z,54.30
2017-08-26T08:22:07.879Z,58.00
2017-08-26T08:24:35.443Z,53.40
2017-08-26T08:27:03.005Z,50.30
2017-08-26T08:29:30.605Z,49.40
2017-08-26T08:31:58.147Z,50.10
2017-08-26T08:34:25.696Z,49.60
2017-08-26T08:36:53.294Z,48.70
2017-08-26T08:39:20.851Z,48.00
2017-08-26T08:41:48.423Z,47.70
2017-08-26T08:44:16.023Z,48.00
2017-08-26T08:46:43.583Z,49.80
2017-08-26T08:49:11.142Z,50.40
2017-08-26T08:51:38.741Z,48.70
2017-08-26T08:54:06.300Z,47.40
2017-08-26T08:56:33.866Z,46.70
2017-08-26T08:59:01.471Z,46.10
2017-08-26T09:01:29.035Z,47.80
2017-08-26T09:03:56.600Z,48.00
2017-08-26T09:06:24.189Z,47.30
2017-08-26T09:08:51.751Z,47.10
2017-08-26T09:11:19.323Z,48.00
2017-08-26T09:13:46.909Z,46.30
2017-08-26T09:16:14.469Z,52.50
2017-08-26T09:18:42.046Z,48.00
2017-08-26T09:21:09.652Z,48.60
2017-08-26T09:23:37.213Z,46.60
2017-08-26T09:26:04.778Z,44.80
2017-08-26T09:28:32.356Z,47.60
2017-08-26T09:30:59.910Z,44.30
2017-08-26T09:33:27.483Z,42.80
2017-08-26T09:35:55.075Z,43.90
2017-08-26T09:38:22.625Z,42.50
2017-08-26T09:40:50.946Z,42.70
2017-08-26T09:43:18.545Z,42.70
2017-08-26T09:45:46.115Z,44.40
2017-08-26T09:48:13.656Z,47.20
2017-08-26T09:50:41.279Z,45.60
2017-08-26T09:53:08.838Z,41.00
2017-08-26T09:55:36.390Z,41.80
2017-08-26T09:58:03.979Z,40.60
2017-08-26T10:00:31.530Z,41.00
2017-08-26T10:02:59.083Z,40.70
2017-08-26T10:05:26.670Z,41.40
2017-08-26T10:07:54.219Z,41.70
2017-08-26T10:10:21.787Z,44.70
2017-08-26T10:12:49.372Z,42.00
2017-08-26T10:15:16.919Z,42.00
2017-08-26T10:17:44.475Z,45.90
2017-08-26T10:20:12.071Z,47.20
2017-08-26T10:22:39.630Z,41.80
2017-08-26T10:25:07.187Z,41.40
2017-08-26T10:27:34.779Z,43.20
2017-08-26T10:30:02.372Z,39.40
2017-08-26T10:32:30.035Z,41.80
2017-08-26T10:34:57.672Z,41.50
2017-08-26T10:37:25.258Z,38.20
2017-08-26T10:39:52.827Z,39.50
2017-08-26T10:42:20.443Z,40.60
2017-08-26T10:44:48.032Z,40.30
2017-08-26T10:47:15.596Z,41.00
2017-08-26T10:49:43.209Z,40.40
2017-08-26T10:52:10.791Z,38.60
2017-08-26T10:54:38.354Z,39.40
2017-08-26T10:57:05.949Z,39.00
2017-08-26T10:59:33.513Z,39.80
2017-08-26T11:02:01.065Z,38.00
2017-08-26T11:04:28.645Z,37.10
2017-08-26T11:06:56.211Z,38.10
2017-08-26T11:09:23.761Z,38.30
2017-08-26T11:11:51.345Z,38.00
2017-08-26T11:14:18.912Z,36.10
2017-08-26T11:16:46.452Z,40.20
2017-08-26T11:19:14.053Z,36.70
2017-08-26T11:21:41.617Z,39.10
2017-08-26T11:24:09.174Z,42.40
2017-08-26T11:26:36.767Z,39.70
2017-08-26T11:29:04.326Z,38.40
2017-08-26T11:31:31.893Z,40.70
2017-08-26T11:33:59.479Z,44.50
2017-08-26T11:36:27.031Z,42.40
2017-08-26T11:38:54.595Z,39.50
2017-08-26T11:41:22.189Z,39.80
2017-08-26T11:43:49.755Z,39.00
2017-08-26T11:46:17.311Z,40.20
2017-08-26T11:48:44.903Z,40.30
2017-08-26T11:51:12.453Z,39.40
2017-08-26T11:53:40.022Z,41.90
2017-08-26T11:56:07.598Z,40.30
2017-08-26T11:58:35.283Z,41.70
2017-08-26T12:01:02.842Z,38.90
2017-08-26T12:03:30.444Z,37.30
2017-08-26T12:05:58.008Z,44.90
2017-08-26T12:08:25.576Z,38.70
2017-08-26T12:10:53.165Z,36.30
2017-08-26T12:13:20.733Z,39.90
2017-08-26T12:15:48.294Z,41.90
2017-08-26T12:18:15.877Z,38.70
2017-08-26T12:20:43.417Z,40.70
2017-08-26T12:23:10.976Z,36.60
2017-08-26T12:25:38.565Z,36.90
2017-08-26T12:28:06.120Z,37.80
2017-08-26T12:30:33.686Z,38.70
2017-08-26T12:33:01.264Z,38.00
2017-08-26T12:35:29.492Z,36.60
2017-08-26T12:37:57.050Z,37.30
2017-08-26T12:40:24.658Z,33.80
2017-08-26T12:42:52.230Z,40.90
2017-08-26T12:45:19.784Z,36.00
2017-08-26T12:47:47.378Z,35.00
2017-08-26T12:50:14.967Z,38.80
2017-08-26T12:52:42.531Z,36.80
2017-08-26T12:55:10.099Z,38.30
2017-08-26T12:57:37.657Z,41.80
2017-08-26T13:00:05.213Z,44.80
2017-08-26T13:02:32.803Z,43.50
2017-08-26T13:05:00.353Z,39.50
2017-08-26T13:07:27.930Z,38.80
2017-08-26T13:09:55.504Z,40.60
2017-08-26T13:12:23.052Z,40.10
2017-08-26T13:14:50.609Z,44.60
2017-08-26T13:17:18.204Z,40.80
2017-08-26T13:19:45.753Z,41.80
2017-08-26T13:22:13.320Z,40.90
2017-08-26T13:24:40.906Z,40.80
2017-08-26T13:27:08.458Z,39.80
2017-08-26T13:29:36.027Z,39.70
2017-08-26T13:32:03.621Z,38.40
2017-08-26T13:34:31.175Z,42.10
2017-08-26T13:36:58.739Z,38.30
2017-08-26T13:39:26.330Z,38.00
2017-08-26T13:41:53.981Z,41.20
2017-08-26T13:44:21.563Z,38.50
2017-08-26T13:46:49.150Z,36.30
2017-08-26T13:49:16.704Z,39.50
2017-08-26T13:51:44.286Z,40.40
2017-08-26T13:54:11.945Z,42.30
2017-08-26T13:56:39.506Z,38.00
2017-08-26T13:59:07.062Z,42.50
2017-08-26T14:01:34.669Z,41.90
2017-08-26T14:04:02.233Z,42.90
2017-08-26T14:06:29.802Z,43.70
2017-08-26T14:08:57.390Z,46.90
2017-08-26T14:11:24.967Z,45.80
2017-08-26T14:13:52.533Z,45.70
2017-08-26T14:16:20.111Z,49.70
2017-08-26T14:18:47.664Z,48.30
2017-08-26T14:21:15.224Z,49.30
2017-08-26T14:23:42.809Z,49.20
2017-08-26T14:26:10.367Z,45.30
2017-08-26T14:28:37.932Z,43.40
2017-08-26T14:31:05.521Z,44.70
2017-08-26T14:33:33.074Z,45.80
2017-08-26T14:36:00.626Z,43.60
2017-08-26T14:38:28.233Z,42.80
2017-08-26T14:40:55.795Z,43.70
2017-08-26T14:43:23.361Z,41.10
2017-08-26T14:45:51.292Z,39.50
2017-08-26T14:48:18.837Z,40.00
2017-08-26T14:50:46.397Z,39.20
2017-08-26T14:53:13.986Z,41.40
2017-08-26T14:55:42.110Z,40.50
2017-08-26T14:58:10.224Z,40.00
2017-08-26T15:00:37.814Z,41.30
2017-08-26T15:03:05.373Z,44.10
2017-08-26T15:05:32.924Z,42.80
2017-08-26T15:08:03.280Z,42.50
2017-08-26T15:10:30.840Z,43.80
2017-08-26T15:12:58.406Z,46.40
2017-08-26T15:15:26.004Z,44.00
2017-08-26T15:17:53.575Z,43.70
2017-08-26T15:20:21.130Z,42.80
2017-08-26T15:22:48.717Z,43.80
2017-08-26T15:25:16.261Z,41.20
2017-08-26T15:27:44.452Z,45.80
2017-08-26T15:30:12.042Z,42.10
2017-08-26T15:32:40.355Z,41.00
2017-08-26T15:35:07.925Z,41.10
2017-08-26T15:37:35.516Z,39.10
2017-08-26T15:40:03.087Z,40.60
2017-08-26T15:42:30.650Z,42.40
2017-08-26T15:44:58.241Z,43.60
2017-08-26T15:47:25.798Z,41.30
2017-08-26T15:49:53.356Z,41.20
2017-08-26T15:52:20.937Z,43.10
2017-08-26T15:54:48.494Z,42.40
2017-08-26T15:57:16.061Z,43.30
2017-08-26T15:59:43.665Z,43.40
2017-08-26T16:02:11.220Z,43.10
2017-08-26T16:04:38.833Z,43.50
2017-08-26T16:07:06.420Z,45.50
2017-08-26T16:09:33.983Z,43.50
2017-08-26T16:12:01.536Z,42.80
2017-08-26T16:14:29.134Z,43.60
2017-08-26T16:16:56.699Z,43.30
2017-08-26T16:19:24.258Z,43.20
2017-08-26T16:21:51.854Z,43.20
2017-08-26T16:24:19.419Z,45.40
2017-08-26T16:26:46.973Z,44.50
2017-08-26T16:29:14.585Z,44.70
2017-08-26T16:31:42.155Z,45.60
2017-08-26T16:34:09.727Z,44.10
2017-08-26T16:36:39.121Z,43.20
2017-08-26T16:39:07.451Z,44.50
2017-08-26T16:41:35.767Z,45.30
2017-08-26T16:44:03.462Z,47.70
2017-08-26T16:46:31.012Z,48.70
2017-08-26T16:48:58.590Z,48.80
2017-08-26T16:51:26.194Z,50.00
2017-08-26T16:53:53.784Z,50.10
2017-08-26T16:56:21.348Z,52.50
2017-08-26T16:58:48.958Z,54.30
2017-08-26T17:01:16.507Z,53.40
2017-08-26T17:03:44.076Z,54.40
2017-08-26T17:06:11.670Z,52.10
2017-08-26T17:08:39.225Z,53.40
2017-08-26T17:11:06.828Z,56.10
2017-08-26T17:13:34.409Z,53.80
2017-08-26T17:16:01.953Z,54.50
2017-08-26T17:18:29.515Z,56.30
2017-08-26T17:20:57.132Z,55.40
2017-08-26T17:23:24.689Z,56.90
2017-08-26T17:25:52.254Z,56.20
2017-08-26T17:28:19.832Z,53.70
2017-08-26T17:30:47.390Z,51.50
2017-08-26T17:33:14.936Z,51.10
2017-08-26T17:35:42.526Z,51.50
2017-08-26T17:38:10.089Z,52.90
2017-08-26T17:40:37.636Z,51.40
2017-08-26T17:43:05.218Z,55.10
2017-08-26T17:45:32.824Z,57.20
2017-08-26T17:48:00.387Z,58.50
2017-08-26T17:50:28.751Z,56.50
2017-08-26T17:52:56.310Z,56.50
2017-08-26T17:55:24.637Z,53.30
2017-08-26T17:57:52.255Z,53.20
2017-08-26T18:00:20.589Z,51.50
2017-08-26T18:02:48.131Z,51.50
2017-08-26T18:05:15.726Z,51.20
2017-08-26T18:07:43.284Z,49.90
2017-08-26T18:10:10.853Z,49.50
2017-08-26T18:12:38.436Z,53.40
2017-08-26T18:15:05.999Z,52.20
2017-08-26T18:17:33.586Z,51.20
2017-08-26T18:20:01.184Z,50.30
2017-08-26T18:22:28.756Z,48.50
2017-08-26T18:24:56.326Z,48.60
2017-08-26T18:27:23.950Z,46.30
2017-08-26T18:29:51.505Z,44.90
2017-08-26T18:32:19.057Z,45.00
2017-08-26T18:34:46.646Z,43.20
2017-08-26T18:37:14.221Z,43.90
2017-08-26T18:39:41.772Z,44.70
2017-08-26T18:42:09.363Z,44.40
2017-08-26T18:44:36.922Z,43.50
2017-08-26T18:47:04.495Z,43.10
2017-08-26T18:49:32.095Z,42.90
2017-08-26T18:51:59.649Z,43.10
2017-08-26T18:54:27.211Z,43.30
2017-08-26T18:56:54.807Z,42.10
2017-08-26T18:59:22.366Z,41.60
2017-08-26T19:01:49.929Z,42.10
2017-08-26T19:04:17.529Z,40.20
2017-08-26T19:06:45.090Z,40.80
2017-08-26T19:09:12.652Z,40.50
2017-08-26T19:11:40.246Z,40.60
2017-08-26T19:14:07.788Z,40.80
2017-08-26T19:16:35.351Z,41.00
2017-08-26T19:19:02.943Z,41.50
2017-08-26T19:21:30.492Z,41.70
2017-08-26T19:23:58.064Z,41.80
2017-08-26T19:26:25.672Z,42.20
2017-08-26T19:28:53.234Z,42.00
2017-08-26T19:31:20.802Z,42.30
2017-08-26T19:33:48.521Z,42.00
2017-08-26T19:36:16.080Z,42.00
2017-08-26T19:38:43.637Z,42.30
2017-08-26T19:41:14.184Z,41.30
2017-08-26T19:43:41.840Z,41.90
2017-08-26T19:46:09.411Z,41.90
2017-08-26T19:48:36.999Z,41.90
2017-08-26T19:51:05.191Z,41.70
2017-08-26T19:53:32.762Z,42.00
2017-08-26T19:56:00.351Z,42.00
2017-08-26T19:58:27.933Z,42.10
2017-08-26T20:00:55.494Z,42.00
2017-08-26T20:03:23.091Z,42.00
2017-08-26T20:05:50.642Z,42.20
2017-08-26T20:08:18.187Z,42.00
2017-08-26T20:10:45.790Z,42.40
2017-08-26T20:13:13.351Z,41.80
2017-08-26T20:15:40.929Z,42.20
2017-08-26T20:18:08.840Z,41.50
2017-08-26T20:20:36.398Z,41.70
2017-08-26T20:23:03.971Z,41.70
2017-08-26T20:25:31.559Z,41.50
2017-08-26T20:27:59.122Z,41.60
2017-08-26T20:30:26.683Z,41.70
2017-08-26T20:32:54.264Z,41.70
2017-08-26T20:35:21.824Z,42.30
2017-08-26T20:37:49.368Z,42.60
2017-08-26T20:40:16.941Z,42.10
2017-08-26T20:42:44.489Z,42.60
2017-08-26T20:45:12.046Z,43.50
2017-08-26T20:47:39.626Z,43.40
2017-08-26T20:50:07.183Z,43.40
2017-08-26T20:52:34.742Z,43.60
2017-08-26T20:55:02.374Z,44.60
2017-08-26T20:57:29.957Z,46.00
2017-08-26T20:59:57.519Z,46.10
2017-08-26T21:02:25.116Z,46.10
2017-08-26T21:04:52.710Z,45.70
2017-08-26T21:07:20.259Z,45.40
2017-08-26T21:09:47.845Z,45.00
2017-08-26T21:12:15.402Z,45.60
2017-08-26T21:14:42.939Z,45.10
2017-08-26T21:17:10.510Z,45.00
2017-08-26T21:19:38.047Z,45.30
2017-08-26T21:22:05.584Z,45.70
2017-08-26T21:24:33.179Z,45.50
2017-08-26T21:27:00.725Z,45.60
2017-08-26T21:29:28.272Z,46.20
2017-08-26T21:31:55.854Z,46.10
2017-08-26T21:34:23.394Z,45.80
2017-08-26T21:36:50.960Z,46.90
2017-08-26T21:39:18.547Z,46.60
2017-08-26T21:41:46.121Z,47.00
2017-08-26T21:44:13.687Z,46.70
2017-08-26T21:46:41.274Z,46.30
2017-08-26T21:49:08.828Z,46.50
2017-08-26T21:51:36.384Z,46.40
2017-08-26T21:54:03.984Z,46.90
2017-08-26T21:56:31.542Z,46.70
2017-08-26T21:58:59.115Z,46.80
2017-08-26T22:01:26.765Z,47.20
2017-08-26T22:03:54.318Z,47.40
2017-08-26T22:06:21.876Z,47.30
2017-08-26T22:08:49.452Z,47.50
2017-08-26T22:11:17.029Z,48.30
2017-08-26T22:13:44.603Z,49.10
2017-08-26T22:16:12.190Z,48.70
2017-08-26T22:18:39.732Z,49.10
2017-08-26T22:21:07.280Z,49.00
2017-08-26T22:23:34.865Z,49.60
2017-08-26T22:26:02.424Z,49.20
2017-08-26T22:28:29.979Z,49.40
2017-08-26T22:30:57.569Z,49.60
2017-08-26T22:33:25.112Z,49.60
2017-08-26T22:35:52.677Z,49.60
2017-08-26T22:38:20.251Z,49.40
2017-08-26T22:40:47.812Z,49.10
2017-08-26T22:43:15.366Z,49.40
2017-08-26T22:45:42.957Z,49.60
2017-08-26T22:48:10.509Z,49.40
2017-08-26T22:50:38.067Z,49.30
2017-08-26T22:53:05.656Z,49.60
2017-08-26T22:55:33.242Z,50.00
2017-08-26T22:58:00.801Z,50.10
2017-08-26T23:00:28.393Z,49.90
2017-08-26T23:02:55.960Z,49.90
2017-08-26T23:05:23.514Z,51.20
2017-08-26T23:07:51.108Z,51.20
2017-08-26T23:10:18.670Z,50.90
2017-08-26T23:12:46.244Z,51.10
2017-08-26T23:15:13.842Z,51.20
2017-08-26T23:17:41.399Z,51.00
2017-08-26T23:20:08.953Z,51.30
2017-08-26T23:22:36.547Z,51.10
2017-08-26T23:25:04.111Z,50.70
2017-08-26T23:27:33.193Z,50.60
2017-08-26T23:30:00.781Z,50.40
2017-08-26T23:32:28.338Z,50.40
2017-08-26T23:34:55.908Z,50.70
2017-08-26T23:37:23.498Z,50.60
2017-08-26T23:39:51.063Z,50.90
2017-08-26T23:42:18.614Z,50.70
2017-08-26T23:44:46.208Z,50.90
2017-08-26T23:47:13.767Z,51.60
2017-08-26T23:49:41.339Z,50.90
2017-08-26T23:52:08.919Z,50.70
2017-08-26T23:54:36.481Z,50.60
2017-08-26T23:57:04.039Z,50.70
2017-08-26T23:59:31.630Z,50.50
